Comanche, Texas
Current Conditions -  °F | °C
As of 8:15 AM on Monday 24 Nov 2014 (Local Time) from KMKN Reporting Station
Clear Clear  
Wind Chill: 39°   Ceiling: Unl
Heat Index: 42°   Visibility: 10mi
Dew Point: 32°   Wind: 5mph
Humidity: 67%   Direction: 300°WNW
Pressure: 30.05"   Gusts: NA
Location:  31.9°N, 98.6°W
Report Text: KMKN 241415Z AUTO 30004KT 10SM CLR 06/00 A3005 RMK AO2 T00570000
Loading
Personal Weather Stations






























Interactive Weather Map New forecast layout! Learn more

10-Day Weather Forecast

Advertisements
Track Severe Weather on mobile